Time;durP1;ratioP1;P1;durP2;ratioP2;P2;SDS_P1;SDS_P2;PMS_P1;PMS_P2;Temp;Humidity;BMP_temperature;BMP_pressure;BME280_temperature;BME280_humidity;BME280_pressure;Samples;Min_cycle;Max_cycle;Signal;HPM_P1;HPM_P2
2021/10/31 00:01:24;;;;;;;;;;;;;;;5.89;99.29;98858.88;5065342;28;19960;-88
2021/10/31 00:03:50;;;;;;;;;;;;;;;5.91;99.69;98861.44;5067982;28;19959;-88
2021/10/31 00:06:15;;;;;;;;;;;;;;;5.93;99.69;98854.34;5071863;28;19947;-88
2021/10/31 00:08:41;;;;;;;;;;;;;;;5.97;99.86;98853.34;5069137;28;19924;-88
2021/10/31 00:11:06;;;;;;;;;;;;;;;6.00;100.00;98856.72;5066713;28;20435;-88
2021/10/31 00:13:32;;;;;;;;;;;;;;;6.04;100.00;98856.59;5072769;28;19916;-88
2021/10/31 00:15:57;;;;;;;;;;;;;;;6.04;100.00;98862.72;5070367;28;19924;-87
2021/10/31 00:18:23;;;;;;;;;;;;;;;6.06;100.00;98871.38;5069210;28;19977;-87
2021/10/31 00:20:48;;;;;;;;;;;;;;;6.07;100.00;98875.75;5067906;28;19967;-87
2021/10/31 00:23:13;;;;;;;;;;;;;;;6.09;100.00;98878.31;5069984;28;19925;-87
2021/10/31 00:25:38;;;;;;;;;;;;;;;6.14;100.00;98871.09;5068787;28;19997;-88
2021/10/31 00:28:04;;;;;;;;;;;;;;;6.14;100.00;98878.97;5070453;28;19920;-88
2021/10/31 00:30:29;;;;;;;;;;;;;;;6.17;100.00;98878.84;5070619;28;20396;-87
2021/10/31 00:32:54;;;;;;;;;;;;;;;6.21;100.00;98885.72;5070808;28;19931;-87
2021/10/31 00:35:20;;;;;;;;;;;;;;;6.21;100.00;98898.00;5071884;28;19920;-89
2021/10/31 00:37:45;;;;;;;;;;;;;;;6.25;100.00;98892.56;5086930;28;19925;-88
2021/10/31 00:40:11;;;;;;;;;;;;;;;6.27;100.00;98885.50;5068472;28;20390;-88
2021/10/31 00:42:36;;;;;;;;;;;;;;;6.33;100.00;98890.50;5069557;28;19947;-87
2021/10/31 00:45:04;;;;;;;;;;;;;;;6.32;100.00;98886.16;5069492;28;19967;-88
2021/10/31 00:47:30;;;;;;;;;;;;;;;6.33;100.00;98894.91;5070898;28;19920;-89
2021/10/31 00:49:55;;;;;;;;;;;;;;;6.35;100.00;98890.41;5073252;28;19920;-89
2021/10/31 00:52:21;;;;;;;;;;;;;;;6.38;100.00;98881.56;5069038;28;20356;-88
2021/10/31 00:54:47;;;;;;;;;;;;;;;6.44;100.00;98884.78;5071979;28;19940;-88
2021/10/31 00:57:13;;;;;;;;;;;;;;;6.48;100.00;98885.56;5069830;28;19977;-89
2021/10/31 00:59:38;;;;;;;;;;;;;;;6.45;100.00;98881.25;5069732;28;20334;-88
2021/10/31 01:02:09;;;;;;;;;;;;;;;6.42;100.00;98888.44;5071633;28;19952;-88
2021/10/31 01:04:34;;;;;;;;;;;;;;;6.30;100.00;98885.38;5072791;28;20007;-88
2021/10/31 01:07:07;;;;;;;;;;;;;;;6.20;100.00;98875.25;5071184;28;20424;-88
2021/10/31 01:09:51;;;;;;;;;;;;;;;6.08;100.00;98868.69;5068971;28;19924;-89
2021/10/31 01:12:22;;;;;;;;;;;;;;;5.93;100.00;98868.34;5070295;28;19951;-87
2021/10/31 01:15:06;;;;;;;;;;;;;;;5.86;100.00;98877.41;5062287;28;19923;-88
2021/10/31 01:17:50;;;;;;;;;;;;;;;5.70;100.00;98882.38;5072067;28;19917;-90
2021/10/31 01:20:26;;;;;;;;;;;;;;;5.66;100.00;98887.78;5071317;28;20006;-88
2021/10/31 01:22:54;;;;;;;;;;;;;;;5.64;100.00;98886.06;5070022;28;19924;-88
2021/10/31 01:25:31;;;;;;;;;;;;;;;5.71;100.00;98891.97;5070555;28;19924;-89
2021/10/31 01:28:13;;;;;;;;;;;;;;;5.81;100.00;98887.22;5060968;28;19921;-88
2021/10/31 01:30:57;;;;;;;;;;;;;;;5.89;100.00;98885.16;5066722;28;19920;-89
2021/10/31 01:33:29;;;;;;;;;;;;;;;6.01;100.00;98889.13;5069514;28;19924;-89
2021/10/31 01:36:12;;;;;;;;;;;;;;;6.16;100.00;98882.44;5069560;28;19931;-88
2021/10/31 01:38:41;;;;;;;;;;;;;;;6.35;100.00;98859.72;5069758;28;19968;-87
2021/10/31 01:41:21;;;;;;;;;;;;;;;6.50;100.00;98870.53;5068914;28;19924;-88
2021/10/31 04:18:29;;;;;;;;;;;;;;;3.70;100.00;98850.56;4949606;28;20437;-86
2021/10/31 04:20:56;;;;;;;;;;;;;;;3.58;100.00;98845.69;4954102;29;20180;-87
2021/10/31 04:23:21;;;;;;;;;;;;;;;3.60;100.00;98846.47;4953970;29;20358;-86
2021/10/31 04:25:46;;;;;;;;;;;;;;;3.44;100.00;98848.69;4949133;29;19924;-87
2021/10/31 04:28:12;;;;;;;;;;;;;;;3.41;100.00;98854.84;4954692;28;19922;-87
2021/10/31 04:30:37;;;;;;;;;;;;;;;3.38;100.00;98854.09;4953037;28;20010;-86
2021/10/31 04:33:02;;;;;;;;;;;;;;;3.33;100.00;98843.75;4954550;29;19923;-86
2021/10/31 04:35:27;;;;;;;;;;;;;;;3.23;100.00;98850.16;4953907;29;19918;-87
2021/10/31 04:37:56;;;;;;;;;;;;;;;3.29;100.00;98844.75;4955770;29;20432;-89
2021/10/31 04:40:24;;;;;;;;;;;;;;;3.16;100.00;98849.47;4955548;28;19989;-88
2021/10/31 04:42:53;;;;;;;;;;;;;;;3.15;100.00;98841.66;4955658;29;19926;-89
2021/10/31 04:45:18;;;;;;;;;;;;;;;3.14;100.00;98848.63;4954055;28;20005;-87
2021/10/31 04:47:43;;;;;;;;;;;;;;;3.07;100.00;98842.72;4954165;29;20421;-85
2021/10/31 04:50:08;;;;;;;;;;;;;;;3.12;100.00;98832.13;4955421;29;19919;-85
2021/10/31 04:52:34;;;;;;;;;;;;;;;3.02;100.00;98836.75;4954958;28;20374;-86
2021/10/31 04:54:59;;;;;;;;;;;;;;;2.96;100.00;98841.31;4962329;28;19918;-85
2021/10/31 04:57:24;;;;;;;;;;;;;;;3.21;100.00;98838.88;4962216;28;19929;-86
2021/10/31 04:59:49;;;;;;;;;;;;;;;3.22;100.00;98835.34;4955002;28;20367;-87
2021/10/31 05:02:15;;;;;;;;;;;;;;;3.12;100.00;98839.13;4952592;29;19933;-88
2021/10/31 05:04:40;;;;;;;;;;;;;;;3.09;100.00;98834.81;4954927;29;20010;-88
2021/10/31 05:07:05;;;;;;;;;;;;;;;2.98;100.00;98842.97;4953767;28;19926;-88
2021/10/31 05:09:30;;;;;;;;;;;;;;;2.89;100.00;98844.09;4953743;29;20271;-89
2021/10/31 05:11:56;;;;;;;;;;;;;;;2.91;100.00;98842.28;4954842;29;19929;-88
2021/10/31 05:14:21;;;;;;;;;;;;;;;2.91;100.00;98842.28;4955103;28;20358;-88
2021/10/31 05:16:47;;;;;;;;;;;;;;;2.84;100.00;98838.13;4953370;28;19930;-89
2021/10/31 05:19:13;;;;;;;;;;;;;;;2.76;100.00;98836.59;4954548;29;20009;-88
2021/10/31 05:21:38;;;;;;;;;;;;;;;2.79;100.00;98828.66;4953447;29;20009;-88
2021/10/31 05:24:04;;;;;;;;;;;;;;;2.78;100.00;98832.19;4952904;28;19926;-89
2021/10/31 05:26:29;;;;;;;;;;;;;;;2.76;100.00;98827.00;4952677;28;20013;-88
2021/10/31 05:28:55;;;;;;;;;;;;;;;2.90;100.00;98829.22;4960563;28;19926;-89
2021/10/31 05:31:21;;;;;;;;;;;;;;;2.88;100.00;98831.88;4951952;29;19926;-89
2021/10/31 05:33:48;;;;;;;;;;;;;;;2.80;100.00;98817.31;4954473;28;20058;-90
2021/10/31 05:36:13;;;;;;;;;;;;;;;2.82;100.00;98802.41;4954669;28;20004;-89
2021/10/31 05:38:39;;;;;;;;;;;;;;;2.71;100.00;98808.81;4954300;28;19993;-88
2021/10/31 05:41:04;;;;;;;;;;;;;;;2.69;100.00;98807.97;4954431;28;19918;-89
2021/10/31 05:43:30;;;;;;;;;;;;;;;2.60;100.00;98805.63;4954294;28;19919;-89
2021/10/31 05:45:56;;;;;;;;;;;;;;;2.60;100.00;98812.59;4951603;29;19928;-88
2021/10/31 05:48:22;;;;;;;;;;;;;;;2.52;100.00;98797.09;4953085;28;19945;-89
2021/10/31 05:50:47;;;;;;;;;;;;;;;2.50;100.00;98799.75;4953167;29;20433;-90
2021/10/31 05:53:13;;;;;;;;;;;;;;;2.47;100.00;98793.75;4945051;28;20366;-88
2021/10/31 05:55:38;;;;;;;;;;;;;;;2.47;100.00;98796.34;4954168;28;20442;-89
2021/10/31 05:58:03;;;;;;;;;;;;;;;2.41;100.00;98796.50;4954222;28;19922;-90
2021/10/31 06:00:29;;;;;;;;;;;;;;;2.48;100.00;98785.84;4951589;29;20437;-88
2021/10/31 06:02:54;;;;;;;;;;;;;;;2.34;100.00;98790.59;4952933;29;19919;-89
2021/10/31 06:05:19;;;;;;;;;;;;;;;2.30;100.00;98784.56;4952843;29;20001;-89
2021/10/31 06:07:45;;;;;;;;;;;;;;;2.31;100.00;98790.66;4945505;29;20029;-89
2021/10/31 06:10:11;;;;;;;;;;;;;;;2.29;100.00;98788.06;4954252;28;19926;-90
2021/10/31 06:12:41;;;;;;;;;;;;;;;2.27;100.00;98784.66;4945832;29;19973;-90
2021/10/31 06:15:06;;;;;;;;;;;;;;;2.25;99.95;98782.97;4953448;28;20349;-88
2021/10/31 06:17:32;;;;;;;;;;;;;;;2.17;99.57;98783.16;4953118;28;20016;-89
2021/10/31 06:19:57;;;;;;;;;;;;;;;2.19;99.67;98786.59;4953879;28;20025;-88
2021/10/31 13:56:45;;;;;;;;;;;;;;;6.56;100.00;98207.06;5455809;23;19958;-85
2021/10/31 13:59:12;;;;;;;;;;;;;;;6.64;100.00;98202.25;4922527;29;19923;-87
2021/10/31 14:01:41;;;;;;;;;;;;;;;6.67;100.00;98204.72;4923907;29;20370;-85
2021/10/31 14:04:09;;;;;;;;;;;;;;;6.73;100.00;98198.28;4924630;29;19978;-86
2021/10/31 14:06:34;;;;;;;;;;;;;;;6.78;100.00;98203.31;4924510;29;20371;-86
2021/10/31 14:09:00;;;;;;;;;;;;;;;6.80;100.00;98194.41;4932058;29;19919;-86
2021/10/31 14:11:25;;;;;;;;;;;;;;;6.87;100.00;98189.66;4922794;29;19923;-86
2021/10/31 14:13:50;;;;;;;;;;;;;;;6.89;100.00;98175.50;4923685;29;19919;-86
2021/10/31 14:16:18;;;;;;;;;;;;;;;6.93;100.00;98181.44;4924418;29;19929;-86
2021/10/31 14:18:43;;;;;;;;;;;;;;;6.92;100.00;98177.09;4925598;29;19919;-87
2021/10/31 14:21:12;;;;;;;;;;;;;;;7.00;100.00;98174.91;4925339;29;19923;-87
2021/10/31 14:23:38;;;;;;;;;;;;;;;7.06;100.00;98173.72;4925137;29;19951;-87
2021/10/31 14:26:14;;;;;;;;;;;;;;;6.66;100.00;98181.97;4924428;29;19919;-87
2021/10/31 14:28:43;;;;;;;;;;;;;;;5.21;100.00;98180.31;4924981;29;20358;-87
2021/10/31 14:31:12;;;;;;;;;;;;;;;4.52;100.00;98179.06;4923462;29;20334;-87
2021/10/31 14:33:39;;;;;;;;;;;;;;;4.12;100.00;98176.38;4924585;29;20434;-86
2021/10/31 14:36:10;;;;;;;;;;;;;;;4.00;100.00;98187.34;4925183;29;19922;-86
2021/10/31 14:38:38;;;;;;;;;;;;;;;3.86;100.00;98179.22;4924303;29;19997;-86
2021/10/31 14:41:12;;;;;;;;;;;;;;;3.76;100.00;98173.50;4923614;29;20031;-86
2021/10/31 14:43:39;;;;;;;;;;;;;;;3.68;100.00;98170.34;4924106;29;19938;-86
2021/10/31 14:46:09;;;;;;;;;;;;;;;3.64;100.00;98167.84;4925134;29;19919;-87
2021/10/31 14:48:39;;;;;;;;;;;;;;;3.54;100.00;98165.66;4923482;29;19919;-86
2021/10/31 14:51:19;;;;;;;;;;;;;;;3.47;100.00;98161.59;4925421;29;20278;-86
2021/10/31 14:54:03;;;;;;;;;;;;;;;3.40;100.00;98159.22;4924956;29;19919;-86
2021/10/31 14:56:34;;;;;;;;;;;;;;;3.44;100.00;98160.78;4924762;29;19923;-85
2021/10/31 14:59:11;;;;;;;;;;;;;;;3.33;100.00;98162.13;4928829;29;19998;-86
2021/10/31 15:01:39;;;;;;;;;;;;;;;3.27;100.00;98165.81;4927609;29;19941;-86
2021/10/31 15:04:05;;;;;;;;;;;;;;;3.24;100.00;98168.59;4928449;29;19974;-86
2021/10/31 15:06:30;;;;;;;;;;;;;;;3.12;100.00;98171.66;4927335;29;19931;-86
2021/10/31 15:08:56;;;;;;;;;;;;;;;3.10;100.00;98171.72;4928356;29;20429;-85
2021/10/31 15:11:21;;;;;;;;;;;;;;;3.09;100.00;98183.97;4927317;29;19925;-86
2021/10/31 15:13:47;;;;;;;;;;;;;;;3.09;100.00;98183.09;4927011;29;20351;-86
2021/10/31 15:16:12;;;;;;;;;;;;;;;3.01;100.00;98175.53;4928128;29;19943;-86
2021/10/31 15:18:40;;;;;;;;;;;;;;;2.96;100.00;98160.94;4928795;29;19973;-86
2021/10/31 15:21:05;;;;;;;;;;;;;;;2.97;100.00;98162.63;4928066;29;20353;-86
2021/10/31 15:23:31;;;;;;;;;;;;;;;2.89;100.00;98161.16;4928125;29;20002;-86
2021/10/31 15:25:56;;;;;;;;;;;;;;;2.72;100.00;98159.16;4941599;29;19926;-86
2021/10/31 15:28:21;;;;;;;;;;;;;;;2.75;100.00;98147.75;4927222;29;19955;-85
2021/10/31 15:30:46;;;;;;;;;;;;;;;2.77;99.14;98155.53;4928207;29;20316;-86
2021/10/31 15:33:17;;;;;;;;;;;;;;;2.73;98.62;98149.56;4928065;29;19997;-86
2021/10/31 15:35:43;;;;;;;;;;;;;;;2.65;98.32;98147.25;4928390;29;19945;-86
2021/10/31 15:38:08;;;;;;;;;;;;;;;2.62;97.75;98151.75;4928115;29;19918;-86
2021/10/31 15:40:35;;;;;;;;;;;;;;;2.57;97.53;98149.28;4926838;29;20267;-86
2021/10/31 15:43:00;;;;;;;;;;;;;;;2.56;97.29;98149.34;4925668;29;19923;-86
2021/10/31 15:45:26;;;;;;;;;;;;;;;2.57;97.63;98144.06;4927616;29;19915;-86
2021/10/31 15:47:51;;;;;;;;;;;;;;;2.51;97.26;98145.13;4928339;29;19922;-85
2021/10/31 15:50:17;;;;;;;;;;;;;;;2.45;97.19;98140.09;4928111;29;20301;-86
2021/10/31 15:52:43;;;;;;;;;;;;;;;2.51;97.02;98131.19;4927455;29;19927;-86
2021/10/31 15:55:09;;;;;;;;;;;;;;;2.49;96.99;98127.75;4926438;29;20034;-86
2021/10/31 15:57:34;;;;;;;;;;;;;;;2.38;96.70;98127.31;4926490;29;20085;-86
2021/10/31 15:59:59;;;;;;;;;;;;;;;2.29;96.50;98126.72;4926138;29;19930;-85
2021/10/31 16:02:30;;;;;;;;;;;;;;;2.40;96.39;98115.06;4934364;29;19919;-86
2021/10/31 16:04:55;;;;;;;;;;;;;;;2.32;95.91;98124.00;4927558;29;20055;-85
2021/10/31 16:07:21;;;;;;;;;;;;;;;2.34;96.19;98121.34;4927354;29;20013;-86
2021/10/31 16:09:49;;;;;;;;;;;;;;;2.30;95.87;98120.59;4927690;29;20014;-85
2021/10/31 16:12:14;;;;;;;;;;;;;;;2.29;95.77;98118.88;4925514;29;19970;-86
2021/10/31 16:14:40;;;;;;;;;;;;;;;2.19;95.66;98112.31;4926257;29;19954;-85
2021/10/31 16:17:05;;;;;;;;;;;;;;;2.24;95.70;98115.59;4927496;29;20021;-85
2021/10/31 16:19:31;;;;;;;;;;;;;;;2.14;95.49;98120.31;4927085;29;19926;-85
2021/10/31 16:21:58;;;;;;;;;;;;;;;2.15;95.40;98121.16;4927374;29;20251;-85
2021/10/31 16:24:24;;;;;;;;;;;;;;;2.15;95.30;98111.56;4924844;29;20396;-85
2021/10/31 16:26:50;;;;;;;;;;;;;;;2.09;94.87;98113.50;4925793;29;19987;-85
2021/10/31 16:29:19;;;;;;;;;;;;;;;2.09;95.18;98116.13;4927309;29;19930;-85
2021/10/31 16:31:45;;;;;;;;;;;;;;;2.04;94.48;98107.59;4926244;29;20267;-86
2021/10/31 16:34:10;;;;;;;;;;;;;;;2.06;94.64;98106.66;4926848;29;19927;-85
2021/10/31 16:36:35;;;;;;;;;;;;;;;2.04;94.19;98113.69;4927500;29;20544;-86
2021/10/31 16:39:02;;;;;;;;;;;;;;;1.98;94.34;98104.31;4926549;29;19920;-86
2021/10/31 16:41:32;;;;;;;;;;;;;;;1.96;93.98;98095.69;4925328;29;20046;-85
2021/10/31 16:43:58;;;;;;;;;;;;;;;1.91;93.80;98089.75;4926002;29;19923;-85
2021/10/31 16:46:23;;;;;;;;;;;;;;;1.98;93.22;98088.63;4927088;29;19923;-86
2021/10/31 16:48:48;;;;;;;;;;;;;;;1.94;93.12;98081.78;4926937;29;20352;-86
2021/10/31 16:51:14;;;;;;;;;;;;;;;1.87;92.75;98088.16;4926429;29;19927;-86
2021/10/31 16:53:39;;;;;;;;;;;;;;;1.91;92.90;98076.69;4926373;29;20434;-85
2021/10/31 16:56:05;;;;;;;;;;;;;;;1.80;92.52;98078.81;4924023;29;19919;-86
2021/10/31 16:58:30;;;;;;;;;;;;;;;1.77;92.36;98078.91;4926770;29;19966;-86
2021/10/31 17:00:55;;;;;;;;;;;;;;;1.78;92.57;98062.34;4926196;29;19925;-85
2021/10/31 17:03:20;;;;;;;;;;;;;;;1.79;92.12;98066.69;4926336;29;19922;-86
2021/10/31 17:05:47;;;;;;;;;;;;;;;1.68;91.96;98069.66;4926930;29;19974;-86
2021/10/31 17:08:13;;;;;;;;;;;;;;;1.71;91.93;98076.50;4926384;29;20028;-86
2021/10/31 17:10:42;;;;;;;;;;;;;;;1.75;92.02;98071.13;4923565;29;19950;-86
2021/10/31 17:13:08;;;;;;;;;;;;;;;1.70;91.64;98073.06;4927467;29;20388;-86
2021/10/31 17:15:33;;;;;;;;;;;;;;;1.81;92.20;98073.53;4926290;29;19918;-87
2021/10/31 17:17:58;;;;;;;;;;;;;;;1.99;94.33;98074.66;4926626;29;19930;-87
2021/10/31 17:20:24;;;;;;;;;;;;;;;3.19;100.00;98071.03;4925059;29;19919;-83
2021/10/31 17:22:50;;;;;;;;;;;;;;;2.91;100.00;98074.75;4926289;29;20467;-83
2021/10/31 17:25:17;;;;;;;;;;;;;;;2.97;100.00;98079.75;4925969;29;19919;-83
2021/10/31 17:27:42;;;;;;;;;;;;;;;2.97;100.00;98078.88;4925049;29;20264;-83
2021/10/31 17:30:08;;;;;;;;;;;;;;;2.96;100.00;98075.44;4925212;29;19915;-83
2021/10/31 17:32:33;;;;;;;;;;;;;;;3.02;100.00;98075.19;4925806;29;19982;-83
2021/10/31 17:34:59;;;;;;;;;;;;;;;3.07;100.00;98075.84;4926355;29;19926;-83
2021/10/31 17:37:25;;;;;;;;;;;;;;;3.12;100.00;98080.06;4924037;29;19926;-83
2021/10/31 17:39:50;;;;;;;;;;;;;;;3.15;100.00;98072.94;4925163;29;19934;-84
2021/10/31 17:42:16;;;;;;;;;;;;;;;3.17;100.00;98075.50;4923020;29;19927;-84
2021/10/31 17:44:46;;;;;;;;;;;;;;;3.18;100.00;98071.97;4924704;29;19934;-84
2021/10/31 17:47:16;;;;;;;;;;;;;;;3.20;100.00;98062.28;4923034;29;20025;-84
2021/10/31 17:49:43;;;;;;;;;;;;;;;3.21;100.00;98062.22;4925987;29;20393;-84
2021/10/31 17:52:09;;;;;;;;;;;;;;;3.27;100.00;98055.88;4923549;29;20059;-84
2021/10/31 17:54:34;;;;;;;;;;;;;;;3.29;100.00;98056.69;4926085;29;20017;-84
2021/10/31 17:56:59;;;;;;;;;;;;;;;3.32;100.00;98050.44;4923061;29;20375;-84
2021/10/31 17:59:25;;;;;;;;;;;;;;;3.35;100.00;98045.97;4924683;29;20025;-84
2021/10/31 18:01:51;;;;;;;;;;;;;;;3.34;100.00;98046.88;4926052;29;19919;-84
2021/10/31 18:04:17;;;;;;;;;;;;;;;3.40;100.00;98046.63;4925455;29;19927;-84
2021/10/31 18:06:43;;;;;;;;;;;;;;;3.38;100.00;98053.69;4924963;29;20294;-84
2021/10/31 18:09:09;;;;;;;;;;;;;;;3.41;100.00;98047.47;4925240;29;19919;-86
2021/10/31 18:11:35;;;;;;;;;;;;;;;3.42;100.00;98038.69;4923077;29;19983;-83
2021/10/31 18:14:00;;;;;;;;;;;;;;;3.42;100.00;98038.69;4923509;29;19923;-83
2021/10/31 18:16:25;;;;;;;;;;;;;;;3.47;100.00;98043.75;4923864;29;19969;-83
2021/10/31 18:18:51;;;;;;;;;;;;;;;3.52;100.00;98040.00;4922399;29;19923;-83
2021/10/31 18:21:16;;;;;;;;;;;;;;;3.54;100.00;98032.97;4923548;29;20050;-84
2021/10/31 18:23:41;;;;;;;;;;;;;;;3.52;100.00;98036.53;4924230;29;19919;-83
2021/10/31 18:26:06;;;;;;;;;;;;;;;3.57;100.00;98032.81;4922892;29;19978;-83
2021/10/31 18:28:32;;;;;;;;;;;;;;;3.59;100.00;98040.59;4922719;29;19927;-83
2021/10/31 18:30:57;;;;;;;;;;;;;;;3.60;100.00;98042.31;4922359;29;20379;-83
2021/10/31 18:33:23;;;;;;;;;;;;;;;3.63;100.00;98048.25;4924090;29;19922;-83
2021/10/31 18:35:48;;;;;;;;;;;;;;;3.68;100.00;98044.59;4939824;29;20291;-83
2021/10/31 18:38:14;;;;;;;;;;;;;;;3.69;100.00;98036.69;4923906;29;19990;-83
2021/10/31 18:40:40;;;;;;;;;;;;;;;3.72;100.00;98030.44;4923396;29;19929;-83
2021/10/31 18:43:05;;;;;;;;;;;;;;;3.74;100.00;98016.38;4923660;29;19983;-84
2021/10/31 18:45:31;;;;;;;;;;;;;;;3.72;100.00;98009.47;4923681;29;19916;-84
2021/10/31 18:47:56;;;;;;;;;;;;;;;3.73;100.00;98014.66;4920975;29;19926;-83
2021/10/31 18:50:22;;;;;;;;;;;;;;;3.77;100.00;98016.25;4923135;29;19969;-83
2021/10/31 18:52:49;;;;;;;;;;;;;;;3.76;100.00;98017.16;4922056;29;19918;-83
2021/10/31 18:55:14;;;;;;;;;;;;;;;3.76;100.00;98009.28;4923499;29;19923;-83
2021/10/31 18:57:40;;;;;;;;;;;;;;;3.79;100.00;97998.69;4919665;29;19955;-83
2021/10/31 19:00:06;;;;;;;;;;;;;;;3.78;100.00;97993.50;4925251;29;19930;-84
2021/10/31 19:02:31;;;;;;;;;;;;;;;3.82;100.00;97989.84;4923697;29;20005;-85
2021/10/31 19:04:59;;;;;;;;;;;;;;;3.83;100.00;97986.31;4923218;29;20058;-85
2021/10/31 19:07:26;;;;;;;;;;;;;;;3.80;100.00;97987.28;4923537;29;19922;-84
2021/10/31 19:09:52;;;;;;;;;;;;;;;3.82;100.00;97987.22;4923491;29;20272;-83
2021/10/31 19:12:17;;;;;;;;;;;;;;;3.85;100.00;97987.09;4923101;29;19929;-84
2021/10/31 19:14:43;;;;;;;;;;;;;;;3.87;100.00;97987.03;4923074;29;20287;-84
2021/10/31 19:17:08;;;;;;;;;;;;;;;3.86;100.00;97974.81;4924932;29;20026;-84
2021/10/31 19:19:35;;;;;;;;;;;;;;;3.87;100.00;97977.38;4924210;29;19986;-84
2021/10/31 19:22:00;;;;;;;;;;;;;;;3.90;100.00;97977.25;4923253;29;20378;-83
2021/10/31 19:24:25;;;;;;;;;;;;;;;3.92;100.00;97974.56;4924417;29;19930;-83
2021/10/31 19:26:52;;;;;;;;;;;;;;;3.91;100.00;97978.09;4923301;29;20354;-83
2021/10/31 19:29:18;;;;;;;;;;;;;;;3.91;100.00;97976.34;4923539;29;19922;-83
2021/10/31 19:31:44;;;;;;;;;;;;;;;3.93;100.00;97978.91;4924669;29;20075;-83
2021/10/31 19:34:10;;;;;;;;;;;;;;;4.12;100.00;97966.66;4923682;29;20044;-83
2021/10/31 19:36:37;;;;;;;;;;;;;;;4.17;100.00;97975.16;4923844;29;20346;-83
2021/10/31 19:39:06;;;;;;;;;;;;;;;4.08;100.00;97975.56;4924569;29;19983;-83
2021/10/31 19:41:32;;;;;;;;;;;;;;;4.03;100.00;97969.69;4922655;29;19975;-84
2021/10/31 19:43:58;;;;;;;;;;;;;;;4.06;100.00;97964.31;4925300;29;19926;-83
2021/10/31 19:46:23;;;;;;;;;;;;;;;4.08;100.00;97967.69;4927670;29;19919;-83
2021/10/31 19:48:49;;;;;;;;;;;;;;;4.07;100.00;97966.03;4926761;29;19920;-83
2021/10/31 19:51:16;;;;;;;;;;;;;;;4.06;100.00;97961.69;4927289;29;20018;-83
2021/10/31 19:53:41;;;;;;;;;;;;;;;4.07;100.00;97963.41;4925792;29;19950;-83
2021/10/31 19:56:06;;;;;;;;;;;;;;;4.06;100.00;97964.31;4924887;29;19992;-84
2021/10/31 19:58:34;;;;;;;;;;;;;;;4.09;100.00;97960.72;4927704;29;20363;-83
2021/10/31 20:00:59;;;;;;;;;;;;;;;4.10;100.00;97958.03;4926527;29;20458;-83
2021/10/31 20:03:24;;;;;;;;;;;;;;;4.11;100.00;97967.56;4925865;29;19923;-83
2021/10/31 20:05:50;;;;;;;;;;;;;;;4.15;100.00;97966.50;4927088;29;19923;-83
2021/10/31 20:08:22;;;;;;;;;;;;;;;4.14;100.00;97969.22;4927446;29;20034;-83
2021/10/31 20:10:47;;;;;;;;;;;;;;;4.15;100.00;97966.50;4925739;29;20696;-83
2021/10/31 20:13:12;;;;;;;;;;;;;;;4.14;100.00;97970.03;4927717;29;19930;-84
2021/10/31 20:15:38;;;;;;;;;;;;;;;4.17;100.00;97982.19;4926109;29;20342;-83
2021/10/31 20:18:03;;;;;;;;;;;;;;;4.18;100.00;97979.47;4927099;29;19969;-83
2021/10/31 20:20:28;;;;;;;;;;;;;;;4.19;100.00;97989.03;4927107;29;19970;-84
2021/10/31 20:22:54;;;;;;;;;;;;;;;4.21;100.00;97991.59;4927557;29;19922;-83
2021/10/31 20:25:20;;;;;;;;;;;;;;;4.23;100.00;98002.00;4927008;29;19962;-85
2021/10/31 20:27:45;;;;;;;;;;;;;;;4.23;100.00;97995.00;4925908;29;19974;-84
2021/10/31 20:30:11;;;;;;;;;;;;;;;4.25;100.00;97997.56;4927464;29;19978;-83
2021/10/31 20:32:36;;;;;;;;;;;;;;;4.25;100.00;98014.13;4926934;29;19982;-83
2021/10/31 20:35:03;;;;;;;;;;;;;;;4.28;100.00;98003.50;4925490;29;20009;-84
2021/10/31 20:37:29;;;;;;;;;;;;;;;4.26;100.00;98015.84;4926899;29;19915;-84
2021/10/31 20:39:54;;;;;;;;;;;;;;;4.30;100.00;98029.66;4926274;29;19923;-85
2021/10/31 20:42:19;;;;;;;;;;;;;;;4.30;100.00;98037.53;4925572;29;19923;-84
2021/10/31 20:44:45;;;;;;;;;;;;;;;4.28;100.00;98055.09;4926928;29;20376;-84
2021/10/31 20:47:10;;;;;;;;;;;;;;;4.31;100.00;98074.16;4924618;29;19935;-84
2021/10/31 20:49:38;;;;;;;;;;;;;;;4.37;100.00;98075.66;4927449;29;19925;-84
2021/10/31 20:52:04;;;;;;;;;;;;;;;4.36;100.00;98089.69;4926898;29;19966;-84
2021/10/31 20:54:30;;;;;;;;;;;;;;;4.36;100.00;98094.94;4926087;29;20073;-84
2021/10/31 20:56:56;;;;;;;;;;;;;;;4.38;100.00;98108.00;4924923;29;20699;-84
2021/10/31 20:59:28;;;;;;;;;;;;;;;4.37;100.00;98128.09;4926158;29;19962;-83
2021/10/31 21:01:54;;;;;;;;;;;;;;;4.38;100.00;98150.78;4924909;29;19919;-84
2021/10/31 21:04:19;;;;;;;;;;;;;;;4.38;100.00;98170.94;4924906;29;20374;-83
2021/10/31 21:06:44;;;;;;;;;;;;;;;4.40;100.00;98169.09;4926039;29;19929;-85
2021/10/31 21:09:10;;;;;;;;;;;;;;;4.40;100.00;98179.56;4925924;29;20006;-82
2021/10/31 21:11:35;;;;;;;;;;;;;;;4.41;100.00;98162.94;4925274;29;19926;-84
2021/10/31 21:14:03;;;;;;;;;;;;;;;4.40;100.00;98172.53;4925089;29;20395;-84
2021/10/31 21:16:28;;;;;;;;;;;;;;;4.39;100.00;98176.13;4926139;29;20291;-83
2021/10/31 21:18:54;;;;;;;;;;;;;;;4.40;100.00;98176.94;4926127;29;19919;-83
2021/10/31 21:21:20;;;;;;;;;;;;;;;4.40;100.00;98198.78;4923779;29;19974;-86
2021/10/31 21:23:49;;;;;;;;;;;;;;;4.41;100.00;98200.50;4924828;29;19997;-84
2021/10/31 21:26:16;;;;;;;;;;;;;;;4.42;100.00;98223.19;4922541;29;20390;-83
2021/10/31 21:28:42;;;;;;;;;;;;;;;4.46;100.00;98211.63;4926025;29;19927;-83
2021/10/31 21:31:07;;;;;;;;;;;;;;;4.45;100.00;98209.06;4924355;29;20006;-85
2021/10/31 21:33:33;;;;;;;;;;;;;;;4.46;100.00;98227.38;4924769;29;20010;-83
2021/10/31 21:35:58;;;;;;;;;;;;;;;4.47;100.00;98213.34;4923830;29;19922;-83
2021/10/31 21:38:24;;;;;;;;;;;;;;;4.89;100.00;98206.28;4923729;29;20434;-81
2021/10/31 21:40:52;;;;;;;;;;;;;;;5.81;100.00;98195.88;4923948;29;20045;-84
2021/10/31 21:43:18;;;;;;;;;;;;;;;5.11;100.00;98195.66;4923104;29;19930;-85
2021/10/31 21:45:44;;;;;;;;;;;;;;;4.90;100.00;98195.72;4924115;29;19920;-84
2021/10/31 21:48:09;;;;;;;;;;;;;;;4.80;100.00;98193.56;4923668;29;20526;-84
2021/10/31 21:50:35;;;;;;;;;;;;;;;4.72;100.00;98191.28;4924012;29;19922;-84
2021/10/31 21:53:00;;;;;;;;;;;;;;;4.69;100.00;98183.53;4924277;29;19931;-83
2021/10/31 21:55:25;;;;;;;;;;;;;;;4.64;100.00;98193.38;4925051;29;19919;-84
2021/10/31 21:57:51;;;;;;;;;;;;;;;4.62;100.00;98195.22;4922828;29;20013;-84
2021/10/31 22:00:16;;;;;;;;;;;;;;;4.61;100.00;98193.53;4923682;29;19930;-84
2021/10/31 22:02:41;;;;;;;;;;;;;;;4.60;100.00;98190.06;4922794;29;20401;-84
2021/10/31 22:05:07;;;;;;;;;;;;;;;4.59;100.00;98190.13;4924824;29;19919;-84
2021/10/31 22:07:32;;;;;;;;;;;;;;;4.54;100.00;98188.53;4923192;29;20059;-85
2021/10/31 22:09:57;;;;;;;;;;;;;;;4.57;100.00;98205.09;4922950;29;20014;-85
2021/10/31 22:12:23;;;;;;;;;;;;;;;4.58;100.00;98204.16;4921117;29;19915;-84
2021/10/31 22:14:48;;;;;;;;;;;;;;;4.54;100.00;98208.69;4923867;29;19948;-84
2021/10/31 22:17:13;;;;;;;;;;;;;;;4.55;100.00;98205.16;4923915;29;20402;-84
2021/10/31 22:19:39;;;;;;;;;;;;;;;4.55;100.00;98206.00;4918999;29;19966;-85
2021/10/31 22:22:05;;;;;;;;;;;;;;;4.54;100.00;98209.53;4922095;29;19967;-83
2021/10/31 22:24:32;;;;;;;;;;;;;;;4.58;100.00;98209.38;4920491;29;19983;-85
2021/10/31 22:26:59;;;;;;;;;;;;;;;4.53;100.00;98207.84;4921750;29;20318;-84
2021/10/31 22:29:24;;;;;;;;;;;;;;;4.52;100.00;98205.28;4921608;29;20050;-85
2021/10/31 22:31:50;;;;;;;;;;;;;;;4.54;99.98;98193.78;4921263;29;20415;-85
2021/10/31 22:34:15;;;;;;;;;;;;;;;4.54;99.89;98198.19;4923166;29;19927;-85
2021/10/31 22:36:40;;;;;;;;;;;;;;;4.53;99.84;98194.72;4921890;29;19915;-85
2021/10/31 22:39:06;;;;;;;;;;;;;;;4.55;99.61;98189.41;4923432;29;19970;-85
2021/10/31 22:41:33;;;;;;;;;;;;;;;4.56;99.50;98201.59;4919557;29;19927;-84
2021/10/31 22:43:58;;;;;;;;;;;;;;;4.58;99.25;98205.03;4939091;29;19923;-86
2021/10/31 22:46:24;;;;;;;;;;;;;;;4.56;99.07;98206.84;4923235;29;19930;-85
2021/10/31 22:48:49;;;;;;;;;;;;;;;4.58;98.76;98204.16;4921565;29;20390;-85
2021/10/31 22:51:14;;;;;;;;;;;;;;;4.59;98.59;98200.63;4923028;29;20006;-85
2021/10/31 22:53:41;;;;;;;;;;;;;;;4.58;98.40;98193.66;4920223;29;20348;-84